sensor_id;sensor_type;location;lat;lon;timestamp;temperature;humidity
1806;DHT22;901;48.142;11.516;2023-06-10T00:00:21;17.50;99.90
1806;DHT22;901;48.142;11.516;2023-06-10T00:02:48;17.50;99.90
1806;DHT22;901;48.142;11.516;2023-06-10T00:05:15;17.50;99.90
1806;DHT22;901;48.142;11.516;2023-06-10T00:07:46;17.40;99.90
1806;DHT22;901;48.142;11.516;2023-06-10T00:10:13;17.40;99.90
1806;DHT22;901;48.142;11.516;2023-06-10T00:12:41;17.40;99.90
1806;DHT22;901;48.142;11.516;2023-06-10T00:15:10;17.30;99.90
1806;DHT22;901;48.142;11.516;2023-06-10T00:17:37;17.30;99.90
1806;DHT22;901;48.142;11.516;2023-06-10T00:20:06;17.20;99.90
1806;DHT22;901;48.142;11.516;2023-06-10T00:22:34;17.20;99.90
1806;DHT22;901;48.142;11.516;2023-06-10T00:25:01;17.10;99.90
1806;DHT22;901;48.142;11.516;2023-06-10T00:27:29;17.10;99.90
1806;DHT22;901;48.142;11.516;2023-06-10T00:30:00;17.10;99.90
1806;DHT22;901;48.142;11.516;2023-06-10T00:32:29;17.10;99.90
1806;DHT22;901;48.142;11.516;2023-06-10T00:34:55;16.90;99.90
1806;DHT22;901;48.142;11.516;2023-06-10T00:37:22;16.90;99.90
1806;DHT22;901;48.142;11.516;2023-06-10T00:39:49;16.90;99.90
1806;DHT22;901;48.142;11.516;2023-06-10T00:42:16;16.80;99.90
1806;DHT22;901;48.142;11.516;2023-06-10T00:44:42;16.80;99.90
1806;DHT22;901;48.142;11.516;2023-06-10T00:47:09;16.80;99.90
1806;DHT22;901;48.142;11.516;2023-06-10T00:49:38;16.80;99.90
1806;DHT22;901;48.142;11.516;2023-06-10T00:52:06;16.60;99.90
1806;DHT22;901;48.142;11.516;2023-06-10T00:54:33;16.60;99.90
1806;DHT22;901;48.142;11.516;2023-06-10T00:57:01;16.60;99.90
1806;DHT22;901;48.142;11.516;2023-06-10T00:59:28;16.60;99.90
1806;DHT22;901;48.142;11.516;2023-06-10T01:01:56;16.60;99.90
1806;DHT22;901;48.142;11.516;2023-06-10T01:04:23;16.40;99.90
1806;DHT22;901;48.142;11.516;2023-06-10T01:06:57;16.40;99.90
1806;DHT22;901;48.142;11.516;2023-06-10T01:09:33;16.40;99.90
1806;DHT22;901;48.142;11.516;2023-06-10T01:12:08;16.30;99.90
1806;DHT22;901;48.142;11.516;2023-06-10T01:14:36;16.30;99.90
1806;DHT22;901;48.142;11.516;2023-06-10T01:17:04;16.30;99.90
1806;DHT22;901;48.142;11.516;2023-06-10T01:19:32;16.30;99.90
1806;DHT22;901;48.142;11.516;2023-06-10T01:22:00;16.30;99.90
1806;DHT22;901;48.142;11.516;2023-06-10T01:24:27;16.30;99.90
1806;DHT22;901;48.142;11.516;2023-06-10T01:27:00;16.30;99.90
1806;DHT22;901;48.142;11.516;2023-06-10T01:29:32;16.30;99.90
1806;DHT22;901;48.142;11.516;2023-06-10T01:32:03;16.20;99.90
1806;DHT22;901;48.142;11.516;2023-06-10T01:34:32;16.20;99.90
1806;DHT22;901;48.142;11.516;2023-06-10T01:37:01;16.20;99.90
1806;DHT22;901;48.142;11.516;2023-06-10T01:39:29;16.10;99.90
1806;DHT22;901;48.142;11.516;2023-06-10T01:41:58;16.10;99.90
1806;DHT22;901;48.142;11.516;2023-06-10T01:44:24;16.10;99.90
1806;DHT22;901;48.142;11.516;2023-06-10T01:46:51;16.00;99.90
1806;DHT22;901;48.142;11.516;2023-06-10T01:49:18;15.90;99.90
1806;DHT22;901;48.142;11.516;2023-06-10T01:51:47;15.90;99.90
1806;DHT22;901;48.142;11.516;2023-06-10T01:54:15;16.00;99.90
1806;DHT22;901;48.142;11.516;2023-06-10T01:56:43;16.00;99.90
1806;DHT22;901;48.142;11.516;2023-06-10T01:59:09;16.00;99.90
1806;DHT22;901;48.142;11.516;2023-06-10T02:01:36;15.90;99.90
1806;DHT22;901;48.142;11.516;2023-06-10T02:04:03;15.90;99.90
1806;DHT22;901;48.142;11.516;2023-06-10T02:06:30;15.90;99.90
1806;DHT22;901;48.142;11.516;2023-06-10T02:08:57;15.90;99.90
1806;DHT22;901;48.142;11.516;2023-06-10T02:11:25;15.90;99.90
1806;DHT22;901;48.142;11.516;2023-06-10T02:13:52;15.90;99.90
1806;DHT22;901;48.142;11.516;2023-06-10T02:16:19;15.80;99.90
1806;DHT22;901;48.142;11.516;2023-06-10T02:18:47;15.80;99.90
1806;DHT22;901;48.142;11.516;2023-06-10T02:21:14;15.70;99.90
1806;DHT22;901;48.142;11.516;2023-06-10T02:23:41;15.70;99.90
1806;DHT22;901;48.142;11.516;2023-06-10T02:26:07;15.70;99.90
1806;DHT22;901;48.142;11.516;2023-06-10T02:28:36;15.70;99.90
1806;DHT22;901;48.142;11.516;2023-06-10T02:31:02;15.60;99.90
1806;DHT22;901;48.142;11.516;2023-06-10T02:33:29;15.70;99.90
1806;DHT22;901;48.142;11.516;2023-06-10T02:35:57;15.60;99.90
1806;DHT22;901;48.142;11.516;2023-06-10T02:38:23;15.60;99.90
1806;DHT22;901;48.142;11.516;2023-06-10T02:40:50;15.60;99.90
1806;DHT22;901;48.142;11.516;2023-06-10T02:43:17;15.50;99.90
1806;DHT22;901;48.142;11.516;2023-06-10T02:45:45;15.50;99.90
1806;DHT22;901;48.142;11.516;2023-06-10T02:48:12;15.60;99.90
1806;DHT22;901;48.142;11.516;2023-06-10T02:50:39;15.50;99.90
1806;DHT22;901;48.142;11.516;2023-06-10T02:53:06;15.50;99.90
1806;DHT22;901;48.142;11.516;2023-06-10T02:55:33;15.50;99.90
1806;DHT22;901;48.142;11.516;2023-06-10T02:58:00;15.50;99.90
1806;DHT22;901;48.142;11.516;2023-06-10T03:00:28;15.50;99.90
1806;DHT22;901;48.142;11.516;2023-06-10T03:02:56;15.50;99.90
1806;DHT22;901;48.142;11.516;2023-06-10T03:05:23;15.50;99.90
1806;DHT22;901;48.142;11.516;2023-06-10T03:07:50;15.50;99.90
1806;DHT22;901;48.142;11.516;2023-06-10T03:10:17;15.40;99.90
1806;DHT22;901;48.142;11.516;2023-06-10T03:12:44;15.40;99.90
1806;DHT22;901;48.142;11.516;2023-06-10T03:15:11;15.40;99.90
1806;DHT22;901;48.142;11.516;2023-06-10T03:17:38;15.40;99.90
1806;DHT22;901;48.142;11.516;2023-06-10T03:20:07;15.50;99.90
1806;DHT22;901;48.142;11.516;2023-06-10T03:22:35;15.50;99.90
1806;DHT22;901;48.142;11.516;2023-06-10T03:25:04;15.50;99.90
1806;DHT22;901;48.142;11.516;2023-06-10T03:27:31;15.40;99.90
1806;DHT22;901;48.142;11.516;2023-06-10T03:29:58;15.40;99.90
1806;DHT22;901;48.142;11.516;2023-06-10T03:32:25;15.40;99.90
1806;DHT22;901;48.142;11.516;2023-06-10T03:34:52;15.40;99.90
1806;DHT22;901;48.142;11.516;2023-06-10T03:37:24;15.50;99.90
1806;DHT22;901;48.142;11.516;2023-06-10T03:39:51;15.50;99.90
1806;DHT22;901;48.142;11.516;2023-06-10T03:42:18;15.60;99.90
1806;DHT22;901;48.142;11.516;2023-06-10T03:44:45;15.60;99.90
1806;DHT22;901;48.142;11.516;2023-06-10T03:47:12;15.70;99.90
1806;DHT22;901;48.142;11.516;2023-06-10T03:49:39;15.70;99.90
1806;DHT22;901;48.142;11.516;2023-06-10T03:52:06;15.60;99.90
1806;DHT22;901;48.142;11.516;2023-06-10T03:54:35;15.60;99.90
1806;DHT22;901;48.142;11.516;2023-06-10T03:57:02;15.90;99.90
1806;DHT22;901;48.142;11.516;2023-06-10T03:59:29;16.10;99.90
1806;DHT22;901;48.142;11.516;2023-06-10T04:01:55;16.50;99.90
1806;DHT22;901;48.142;11.516;2023-06-10T04:04:23;16.70;99.90
1806;DHT22;901;48.142;11.516;2023-06-10T04:06:50;17.00;99.90
1806;DHT22;901;48.142;11.516;2023-06-10T04:09:16;17.20;99.90
1806;DHT22;901;48.142;11.516;2023-06-10T04:11:45;17.50;99.90
1806;DHT22;901;48.142;11.516;2023-06-10T04:14:11;17.60;99.90
1806;DHT22;901;48.142;11.516;2023-06-10T04:16:39;17.90;99.90
1806;DHT22;901;48.142;11.516;2023-06-10T04:19:06;17.90;99.90
1806;DHT22;901;48.142;11.516;2023-06-10T04:21:33;18.20;99.90
1806;DHT22;901;48.142;11.516;2023-06-10T04:24:01;18.50;99.90
1806;DHT22;901;48.142;11.516;2023-06-10T04:26:28;18.70;99.90
1806;DHT22;901;48.142;11.516;2023-06-10T04:28:56;19.00;99.90
1806;DHT22;901;48.142;11.516;2023-06-10T04:31:23;19.20;99.90
1806;DHT22;901;48.142;11.516;2023-06-10T04:33:50;19.50;99.90
1806;DHT22;901;48.142;11.516;2023-06-10T04:36:17;19.60;99.90
1806;DHT22;901;48.142;11.516;2023-06-10T04:38:43;19.60;99.90
1806;DHT22;901;48.142;11.516;2023-06-10T04:41:11;19.70;99.90
1806;DHT22;901;48.142;11.516;2023-06-10T04:43:38;19.70;99.90
1806;DHT22;901;48.142;11.516;2023-06-10T04:46:06;19.90;99.90
1806;DHT22;901;48.142;11.516;2023-06-10T04:48:33;19.90;99.90
1806;DHT22;901;48.142;11.516;2023-06-10T04:51:01;20.00;99.90
1806;DHT22;901;48.142;11.516;2023-06-10T04:53:28;20.20;99.90
1806;DHT22;901;48.142;11.516;2023-06-10T04:55:55;20.20;99.90
1806;DHT22;901;48.142;11.516;2023-06-10T04:58:22;20.50;99.90
1806;DHT22;901;48.142;11.516;2023-06-10T05:00:49;20.50;99.90
1806;DHT22;901;48.142;11.516;2023-06-10T05:03:17;20.50;99.90
1806;DHT22;901;48.142;11.516;2023-06-10T05:05:44;20.70;99.90
1806;DHT22;901;48.142;11.516;2023-06-10T05:08:11;21.30;99.90
1806;DHT22;901;48.142;11.516;2023-06-10T05:10:38;21.60;99.90
1806;DHT22;901;48.142;11.516;2023-06-10T05:13:05;21.40;99.90
1806;DHT22;901;48.142;11.516;2023-06-10T05:15:31;21.70;99.90
1806;DHT22;901;48.142;11.516;2023-06-10T05:17:58;22.20;99.90
1806;DHT22;901;48.142;11.516;2023-06-10T05:20:26;22.30;99.90
1806;DHT22;901;48.142;11.516;2023-06-10T05:22:54;22.30;99.90
1806;DHT22;901;48.142;11.516;2023-06-10T05:25:21;22.60;99.90
1806;DHT22;901;48.142;11.516;2023-06-10T05:27:47;22.40;99.90
1806;DHT22;901;48.142;11.516;2023-06-10T05:30:14;22.00;99.90
1806;DHT22;901;48.142;11.516;2023-06-10T05:32:44;22.20;99.90
1806;DHT22;901;48.142;11.516;2023-06-10T05:35:10;22.70;99.90
1806;DHT22;901;48.142;11.516;2023-06-10T05:37:39;23.10;99.90
1806;DHT22;901;48.142;11.516;2023-06-10T05:40:07;23.30;99.90
1806;DHT22;901;48.142;11.516;2023-06-10T05:42:33;23.50;99.90
1806;DHT22;901;48.142;11.516;2023-06-10T05:45:00;23.40;99.90
1806;DHT22;901;48.142;11.516;2023-06-10T05:47:27;23.90;99.90
1806;DHT22;901;48.142;11.516;2023-06-10T05:49:55;23.70;99.90
1806;DHT22;901;48.142;11.516;2023-06-10T05:52:22;23.70;99.90
1806;DHT22;901;48.142;11.516;2023-06-10T05:54:50;23.20;99.90
1806;DHT22;901;48.142;11.516;2023-06-10T05:57:17;23.80;99.90
1806;DHT22;901;48.142;11.516;2023-06-10T05:59:44;23.70;99.90
1806;DHT22;901;48.142;11.516;2023-06-10T06:02:11;23.70;99.90
1806;DHT22;901;48.142;11.516;2023-06-10T06:04:38;23.70;99.90
1806;DHT22;901;48.142;11.516;2023-06-10T06:07:05;24.30;99.90
1806;DHT22;901;48.142;11.516;2023-06-10T06:09:32;24.20;99.90
1806;DHT22;901;48.142;11.516;2023-06-10T06:12:00;24.40;99.90
1806;DHT22;901;48.142;11.516;2023-06-10T06:14:31;24.30;99.90
1806;DHT22;901;48.142;11.516;2023-06-10T06:16:58;23.80;99.90
1806;DHT22;901;48.142;11.516;2023-06-10T06:19:25;23.10;99.90
1806;DHT22;901;48.142;11.516;2023-06-10T06:21:52;22.80;99.90
1806;DHT22;901;48.142;11.516;2023-06-10T06:24:18;22.30;99.90
1806;DHT22;901;48.142;11.516;2023-06-10T06:26:45;22.10;99.90
1806;DHT22;901;48.142;11.516;2023-06-10T06:29:13;21.60;99.90
1806;DHT22;901;48.142;11.516;2023-06-10T06:31:40;21.30;99.90
1806;DHT22;901;48.142;11.516;2023-06-10T06:34:07;21.00;99.90
1806;DHT22;901;48.142;11.516;2023-06-10T06:36:34;21.10;99.90
1806;DHT22;901;48.142;11.516;2023-06-10T06:39:00;21.00;99.90
1806;DHT22;901;48.142;11.516;2023-06-10T06:41:27;21.10;99.90
1806;DHT22;901;48.142;11.516;2023-06-10T06:43:54;20.90;99.90
1806;DHT22;901;48.142;11.516;2023-06-10T06:46:23;20.80;99.90
1806;DHT22;901;48.142;11.516;2023-06-10T06:48:49;20.60;99.90
1806;DHT22;901;48.142;11.516;2023-06-10T06:51:16;20.70;99.90
1806;DHT22;901;48.142;11.516;2023-06-10T06:53:43;20.90;99.90
1806;DHT22;901;48.142;11.516;2023-06-10T06:56:11;20.90;99.90
1806;DHT22;901;48.142;11.516;2023-06-10T06:58:38;20.70;99.90
1806;DHT22;901;48.142;11.516;2023-06-10T07:01:04;20.90;99.90
1806;DHT22;901;48.142;11.516;2023-06-10T07:03:33;21.10;99.90
1806;DHT22;901;48.142;11.516;2023-06-10T07:05:59;21.20;99.90
1806;DHT22;901;48.142;11.516;2023-06-10T07:08:26;21.20;99.90
1806;DHT22;901;48.142;11.516;2023-06-10T07:10:53;21.30;99.90
1806;DHT22;901;48.142;11.516;2023-06-10T07:13:20;21.10;99.90
1806;DHT22;901;48.142;11.516;2023-06-10T07:15:47;21.20;99.90
1806;DHT22;901;48.142;11.516;2023-06-10T07:18:15;21.20;99.90
1806;DHT22;901;48.142;11.516;2023-06-10T07:20:44;21.10;99.90
1806;DHT22;901;48.142;11.516;2023-06-10T07:23:11;20.90;99.90
1806;DHT22;901;48.142;11.516;2023-06-10T07:25:38;20.90;99.90
1806;DHT22;901;48.142;11.516;2023-06-10T07:28:04;20.90;99.90
1806;DHT22;901;48.142;11.516;2023-06-10T07:30:31;21.00;99.90
1806;DHT22;901;48.142;11.516;2023-06-10T07:32:58;21.10;99.90
1806;DHT22;901;48.142;11.516;2023-06-10T07:35:25;21.00;99.90
1806;DHT22;901;48.142;11.516;2023-06-10T07:37:53;21.00;99.90
1806;DHT22;901;48.142;11.516;2023-06-10T07:40:20;21.10;99.90
1806;DHT22;901;48.142;11.516;2023-06-10T07:42:46;21.10;99.90
1806;DHT22;901;48.142;11.516;2023-06-10T07:45:13;21.10;99.90
1806;DHT22;901;48.142;11.516;2023-06-10T07:47:40;21.20;99.90
1806;DHT22;901;48.142;11.516;2023-06-10T07:50:07;21.20;99.90
1806;DHT22;901;48.142;11.516;2023-06-10T07:52:34;21.30;99.90
1806;DHT22;901;48.142;11.516;2023-06-10T07:55:04;21.30;99.90
1806;DHT22;901;48.142;11.516;2023-06-10T07:57:31;21.20;99.90
1806;DHT22;901;48.142;11.516;2023-06-10T08:00:00;21.40;99.90
1806;DHT22;901;48.142;11.516;2023-06-10T08:02:29;21.60;99.90
1806;DHT22;901;48.142;11.516;2023-06-10T08:04:56;21.70;99.90
1806;DHT22;901;48.142;11.516;2023-06-10T08:07:23;21.60;99.90
1806;DHT22;901;48.142;11.516;2023-06-10T08:09:50;21.50;99.90
1806;DHT22;901;48.142;11.516;2023-06-10T08:12:19;21.60;99.90
1806;DHT22;901;48.142;11.516;2023-06-10T08:14:45;21.60;99.90
1806;DHT22;901;48.142;11.516;2023-06-10T08:17:12;21.50;99.90
1806;DHT22;901;48.142;11.516;2023-06-10T08:19:39;21.70;99.90
1806;DHT22;901;48.142;11.516;2023-06-10T08:22:06;21.60;99.90
1806;DHT22;901;48.142;11.516;2023-06-10T08:24:33;21.60;99.90
1806;DHT22;901;48.142;11.516;2023-06-10T08:26:59;21.70;99.90
1806;DHT22;901;48.142;11.516;2023-06-10T08:29:28;21.70;99.90
1806;DHT22;901;48.142;11.516;2023-06-10T08:31:55;21.70;99.90
1806;DHT22;901;48.142;11.516;2023-06-10T08:34:22;21.70;99.90
1806;DHT22;901;48.142;11.516;2023-06-10T08:36:49;21.90;99.90
1806;DHT22;901;48.142;11.516;2023-06-10T08:39:18;21.90;99.90
1806;DHT22;901;48.142;11.516;2023-06-10T08:41:51;22.00;99.90
1806;DHT22;901;48.142;11.516;2023-06-10T08:44:29;22.20;99.90
1806;DHT22;901;48.142;11.516;2023-06-10T08:46:59;22.40;99.90
1806;DHT22;901;48.142;11.516;2023-06-10T08:49:27;22.30;99.90
1806;DHT22;901;48.142;11.516;2023-06-10T08:51:59;22.40;99.90
1806;DHT22;901;48.142;11.516;2023-06-10T08:54:30;22.40;99.90
1806;DHT22;901;48.142;11.516;2023-06-10T08:56:59;22.30;99.90
1806;DHT22;901;48.142;11.516;2023-06-10T08:59:29;22.50;99.90
1806;DHT22;901;48.142;11.516;2023-06-10T09:01:56;22.60;99.90
1806;DHT22;901;48.142;11.516;2023-06-10T09:04:24;22.40;99.90
1806;DHT22;901;48.142;11.516;2023-06-10T09:06:52;22.30;99.90
1806;DHT22;901;48.142;11.516;2023-06-10T09:09:19;22.50;99.90
1806;DHT22;901;48.142;11.516;2023-06-10T09:11:46;22.60;99.90
1806;DHT22;901;48.142;11.516;2023-06-10T09:14:13;22.60;99.90
1806;DHT22;901;48.142;11.516;2023-06-10T09:16:43;22.70;99.90
1806;DHT22;901;48.142;11.516;2023-06-10T09:19:12;22.70;99.90
1806;DHT22;901;48.142;11.516;2023-06-10T09:21:39;22.90;99.90
1806;DHT22;901;48.142;11.516;2023-06-10T09:24:06;22.90;99.90
1806;DHT22;901;48.142;11.516;2023-06-10T09:26:33;23.10;99.90
1806;DHT22;901;48.142;11.516;2023-06-10T09:29:03;23.00;99.90
1806;DHT22;901;48.142;11.516;2023-06-10T09:31:30;23.00;99.90
1806;DHT22;901;48.142;11.516;2023-06-10T09:34:07;23.20;99.90
1806;DHT22;901;48.142;11.516;2023-06-10T09:36:34;23.10;99.90
1806;DHT22;901;48.142;11.516;2023-06-10T09:39:02;23.10;99.90
1806;DHT22;901;48.142;11.516;2023-06-10T09:41:32;23.10;99.90
1806;DHT22;901;48.142;11.516;2023-06-10T09:44:00;23.20;99.90
1806;DHT22;901;48.142;11.516;2023-06-10T09:46:31;23.40;99.90
1806;DHT22;901;48.142;11.516;2023-06-10T09:48:58;23.60;99.90
1806;DHT22;901;48.142;11.516;2023-06-10T09:51:27;23.60;99.90
1806;DHT22;901;48.142;11.516;2023-06-10T09:53:54;23.70;99.90
1806;DHT22;901;48.142;11.516;2023-06-10T09:56:21;23.80;99.90
1806;DHT22;901;48.142;11.516;2023-06-10T09:58:53;24.20;99.90
1806;DHT22;901;48.142;11.516;2023-06-10T10:01:19;24.60;99.90
1806;DHT22;901;48.142;11.516;2023-06-10T10:03:48;24.80;99.90
1806;DHT22;901;48.142;11.516;2023-06-10T10:06:16;24.60;99.90
1806;DHT22;901;48.142;11.516;2023-06-10T10:08:46;24.50;99.90
1806;DHT22;901;48.142;11.516;2023-06-10T10:11:14;24.40;99.90
1806;DHT22;901;48.142;11.516;2023-06-10T10:13:45;24.30;99.90
1806;DHT22;901;48.142;11.516;2023-06-10T10:16:16;24.30;99.90
1806;DHT22;901;48.142;11.516;2023-06-10T10:18:46;24.30;99.90
1806;DHT22;901;48.142;11.516;2023-06-10T10:21:16;24.50;99.90
1806;DHT22;901;48.142;11.516;2023-06-10T10:23:52;24.60;99.90
1806;DHT22;901;48.142;11.516;2023-06-10T10:26:21;24.50;99.90
1806;DHT22;901;48.142;11.516;2023-06-10T10:28:57;24.40;99.90
1806;DHT22;901;48.142;11.516;2023-06-10T10:31:27;24.20;99.90
1806;DHT22;901;48.142;11.516;2023-06-10T10:33:58;24.00;99.90
1806;DHT22;901;48.142;11.516;2023-06-10T10:36:26;24.00;99.90
1806;DHT22;901;48.142;11.516;2023-06-10T10:38:55;23.80;99.90
1806;DHT22;901;48.142;11.516;2023-06-10T10:41:23;24.00;99.90
1806;DHT22;901;48.142;11.516;2023-06-10T10:43:52;24.10;99.90
1806;DHT22;901;48.142;11.516;2023-06-10T10:46:19;24.40;99.90
1806;DHT22;901;48.142;11.516;2023-06-10T10:48:52;24.60;99.90
1806;DHT22;901;48.142;11.516;2023-06-10T10:51:19;25.00;99.90
1806;DHT22;901;48.142;11.516;2023-06-10T10:54:11;25.20;99.90
1806;DHT22;901;48.142;11.516;2023-06-10T10:56:38;25.50;99.90
1806;DHT22;901;48.142;11.516;2023-06-10T10:59:06;26.00;99.90
1806;DHT22;901;48.142;11.516;2023-06-10T11:01:43;26.00;99.90
1806;DHT22;901;48.142;11.516;2023-06-10T11:04:12;25.70;99.90
1806;DHT22;901;48.142;11.516;2023-06-10T11:06:38;25.70;99.90
1806;DHT22;901;48.142;11.516;2023-06-10T11:09:28;25.70;99.90
1806;DHT22;901;48.142;11.516;2023-06-10T11:11:57;25.80;99.90
1806;DHT22;901;48.142;11.516;2023-06-10T11:14:29;25.60;99.90
1806;DHT22;901;48.142;11.516;2023-06-10T11:16:57;25.50;99.90
1806;DHT22;901;48.142;11.516;2023-06-10T11:19:35;25.60;99.90
1806;DHT22;901;48.142;11.516;2023-06-10T11:22:03;25.70;99.90
1806;DHT22;901;48.142;11.516;2023-06-10T11:24:32;25.30;99.90
1806;DHT22;901;48.142;11.516;2023-06-10T11:27:18;25.30;99.90
1806;DHT22;901;48.142;11.516;2023-06-10T11:29:58;25.50;99.90
1806;DHT22;901;48.142;11.516;2023-06-10T11:32:29;25.50;99.90
1806;DHT22;901;48.142;11.516;2023-06-10T11:34:56;25.30;99.90
1806;DHT22;901;48.142;11.516;2023-06-10T11:37:23;24.80;99.90
1806;DHT22;901;48.142;11.516;2023-06-10T11:39:53;24.30;99.90
1806;DHT22;901;48.142;11.516;2023-06-10T11:42:21;24.20;99.90
1806;DHT22;901;48.142;11.516;2023-06-10T11:44:49;24.20;99.90
1806;DHT22;901;48.142;11.516;2023-06-10T11:47:16;23.80;99.90
1806;DHT22;901;48.142;11.516;2023-06-10T11:49:43;23.90;99.90
1806;DHT22;901;48.142;11.516;2023-06-10T11:52:10;23.80;99.90
1806;DHT22;901;48.142;11.516;2023-06-10T11:54:37;23.90;99.90
1806;DHT22;901;48.142;11.516;2023-06-10T11:57:06;23.80;99.90
1806;DHT22;901;48.142;11.516;2023-06-10T11:59:34;23.70;99.90
1806;DHT22;901;48.142;11.516;2023-06-10T12:02:01;23.70;99.90
1806;DHT22;901;48.142;11.516;2023-06-10T12:04:28;23.80;99.90
1806;DHT22;901;48.142;11.516;2023-06-10T12:06:56;24.00;99.90
1806;DHT22;901;48.142;11.516;2023-06-10T12:09:24;24.10;99.90
1806;DHT22;901;48.142;11.516;2023-06-10T12:11:52;24.10;99.90
1806;DHT22;901;48.142;11.516;2023-06-10T12:14:52;24.30;99.90
1806;DHT22;901;48.142;11.516;2023-06-10T12:17:23;24.60;99.90
1806;DHT22;901;48.142;11.516;2023-06-10T12:19:50;24.90;99.90
1806;DHT22;901;48.142;11.516;2023-06-10T12:22:17;24.90;99.90
1806;DHT22;901;48.142;11.516;2023-06-10T12:24:45;24.90;99.90
1806;DHT22;901;48.142;11.516;2023-06-10T12:27:12;25.10;99.90
1806;DHT22;901;48.142;11.516;2023-06-10T12:29:39;25.20;99.90
1806;DHT22;901;48.142;11.516;2023-06-10T12:32:18;25.30;99.90
1806;DHT22;901;48.142;11.516;2023-06-10T12:34:45;25.00;99.90
1806;DHT22;901;48.142;11.516;2023-06-10T12:37:13;25.00;99.90
1806;DHT22;901;48.142;11.516;2023-06-10T12:39:41;24.90;99.90
1806;DHT22;901;48.142;11.516;2023-06-10T12:42:09;24.90;99.90
1806;DHT22;901;48.142;11.516;2023-06-10T12:44:39;24.80;99.90
1806;DHT22;901;48.142;11.516;2023-06-10T12:47:09;24.80;99.90
1806;DHT22;901;48.142;11.516;2023-06-10T12:49:39;24.80;99.90
1806;DHT22;901;48.142;11.516;2023-06-10T12:52:06;24.80;99.90
1806;DHT22;901;48.142;11.516;2023-06-10T12:54:34;25.20;99.90
1806;DHT22;901;48.142;11.516;2023-06-10T12:57:01;25.40;99.90
1806;DHT22;901;48.142;11.516;2023-06-10T12:59:28;25.70;99.90
1806;DHT22;901;48.142;11.516;2023-06-10T13:01:55;25.60;99.90
1806;DHT22;901;48.142;11.516;2023-06-10T13:04:22;25.70;99.90
1806;DHT22;901;48.142;11.516;2023-06-10T13:06:50;26.30;99.90
1806;DHT22;901;48.142;11.516;2023-06-10T13:09:17;26.50;99.90
1806;DHT22;901;48.142;11.516;2023-06-10T13:11:44;26.70;99.90
1806;DHT22;901;48.142;11.516;2023-06-10T13:14:11;26.90;99.90
1806;DHT22;901;48.142;11.516;2023-06-10T13:16:38;26.30;99.90
1806;DHT22;901;48.142;11.516;2023-06-10T13:19:05;25.90;99.90
1806;DHT22;901;48.142;11.516;2023-06-10T13:21:34;25.30;99.90
1806;DHT22;901;48.142;11.516;2023-06-10T13:24:02;25.00;99.90
1806;DHT22;901;48.142;11.516;2023-06-10T13:26:29;24.90;99.90
1806;DHT22;901;48.142;11.516;2023-06-10T13:28:56;24.80;99.90
1806;DHT22;901;48.142;11.516;2023-06-10T13:31:23;24.80;99.90
1806;DHT22;901;48.142;11.516;2023-06-10T13:33:49;24.70;99.90
1806;DHT22;901;48.142;11.516;2023-06-10T13:36:16;24.80;99.90
1806;DHT22;901;48.142;11.516;2023-06-10T13:38:43;24.50;99.90
1806;DHT22;901;48.142;11.516;2023-06-10T13:41:12;24.80;99.90
1806;DHT22;901;48.142;11.516;2023-06-10T13:43:39;24.90;99.90
1806;DHT22;901;48.142;11.516;2023-06-10T13:46:06;24.90;99.90
1806;DHT22;901;48.142;11.516;2023-06-10T13:48:32;24.70;99.90
1806;DHT22;901;48.142;11.516;2023-06-10T13:51:00;24.50;99.90
1806;DHT22;901;48.142;11.516;2023-06-10T13:53:27;24.00;99.90
1806;DHT22;901;48.142;11.516;2023-06-10T13:55:54;24.50;99.90
1806;DHT22;901;48.142;11.516;2023-06-10T13:58:22;24.50;99.90
1806;DHT22;901;48.142;11.516;2023-06-10T14:00:49;24.60;99.90
1806;DHT22;901;48.142;11.516;2023-06-10T14:03:16;24.50;99.90
1806;DHT22;901;48.142;11.516;2023-06-10T14:05:43;24.70;99.90
1806;DHT22;901;48.142;11.516;2023-06-10T14:08:09;24.70;99.90
1806;DHT22;901;48.142;11.516;2023-06-10T14:10:37;24.80;99.90
1806;DHT22;901;48.142;11.516;2023-06-10T14:13:04;24.80;99.90
1806;DHT22;901;48.142;11.516;2023-06-10T14:15:32;24.90;99.90
1806;DHT22;901;48.142;11.516;2023-06-10T14:18:00;25.10;99.90
1806;DHT22;901;48.142;11.516;2023-06-10T14:20:27;25.10;99.90
1806;DHT22;901;48.142;11.516;2023-06-10T14:22:56;25.00;99.90
1806;DHT22;901;48.142;11.516;2023-06-10T14:25:23;24.90;99.90
1806;DHT22;901;48.142;11.516;2023-06-10T14:27:50;25.20;99.90
1806;DHT22;901;48.142;11.516;2023-06-10T14:30:17;25.10;99.90
1806;DHT22;901;48.142;11.516;2023-06-10T14:32:45;25.30;99.90
1806;DHT22;901;48.142;11.516;2023-06-10T14:35:12;25.40;99.90
1806;DHT22;901;48.142;11.516;2023-06-10T14:37:39;25.40;99.90
1806;DHT22;901;48.142;11.516;2023-06-10T14:40:07;25.50;99.90
1806;DHT22;901;48.142;11.516;2023-06-10T14:42:34;25.60;99.90
1806;DHT22;901;48.142;11.516;2023-06-10T14:45:01;25.70;99.90
1806;DHT22;901;48.142;11.516;2023-06-10T14:47:28;25.80;99.90
1806;DHT22;901;48.142;11.516;2023-06-10T14:49:56;25.80;99.90
1806;DHT22;901;48.142;11.516;2023-06-10T14:52:22;25.80;99.90
1806;DHT22;901;48.142;11.516;2023-06-10T14:54:49;25.70;99.90
1806;DHT22;901;48.142;11.516;2023-06-10T14:57:16;25.60;99.90
1806;DHT22;901;48.142;11.516;2023-06-10T14:59:43;25.50;99.90
1806;DHT22;901;48.142;11.516;2023-06-10T15:02:10;25.10;99.90
1806;DHT22;901;48.142;11.516;2023-06-10T15:04:36;25.10;99.90
1806;DHT22;901;48.142;11.516;2023-06-10T15:07:05;25.10;99.90
1806;DHT22;901;48.142;11.516;2023-06-10T15:09:32;25.00;99.90
1806;DHT22;901;48.142;11.516;2023-06-10T15:11:59;25.10;99.90
1806;DHT22;901;48.142;11.516;2023-06-10T15:14:26;25.10;99.90
1806;DHT22;901;48.142;11.516;2023-06-10T15:16:52;25.10;99.90
1806;DHT22;901;48.142;11.516;2023-06-10T15:19:21;25.10;99.90
1806;DHT22;901;48.142;11.516;2023-06-10T15:21:47;25.30;99.90
1806;DHT22;901;48.142;11.516;2023-06-10T15:24:16;25.40;99.90
1806;DHT22;901;48.142;11.516;2023-06-10T15:26:42;25.30;99.90
1806;DHT22;901;48.142;11.516;2023-06-10T15:29:10;25.60;99.90
1806;DHT22;901;48.142;11.516;2023-06-10T15:31:37;26.60;99.90
1806;DHT22;901;48.142;11.516;2023-06-10T15:34:03;25.70;99.90
1806;DHT22;901;48.142;11.516;2023-06-10T15:36:32;25.50;99.90
1806;DHT22;901;48.142;11.516;2023-06-10T15:39:03;25.50;99.90
1806;DHT22;901;48.142;11.516;2023-06-10T15:41:33;25.50;99.90
1806;DHT22;901;48.142;11.516;2023-06-10T15:44:00;25.50;99.90
1806;DHT22;901;48.142;11.516;2023-06-10T15:46:28;25.10;99.90
1806;DHT22;901;48.142;11.516;2023-06-10T15:48:55;25.30;99.90
1806;DHT22;901;48.142;11.516;2023-06-10T15:51:22;25.50;99.90
1806;DHT22;901;48.142;11.516;2023-06-10T15:53:49;25.50;99.90
1806;DHT22;901;48.142;11.516;2023-06-10T15:56:16;25.50;99.90
1806;DHT22;901;48.142;11.516;2023-06-10T15:58:44;25.70;99.90
1806;DHT22;901;48.142;11.516;2023-06-10T16:01:11;25.80;99.90
1806;DHT22;901;48.142;11.516;2023-06-10T16:03:38;25.60;99.90
1806;DHT22;901;48.142;11.516;2023-06-10T16:06:04;25.80;99.90